sensor_id;sensor_type;location;lat;lon;timestamp;P1;durP1;ratioP1;P2;durP2;ratioP2
53062;SDS011;40529;52.172;10.548;2023-05-02T00:02:07;11.40;;;6.43;;
53062;SDS011;40529;52.172;10.548;2023-05-02T00:04:33;8.50;;;6.32;;
53062;SDS011;40529;52.172;10.548;2023-05-02T00:06:59;13.27;;;6.88;;
53062;SDS011;40529;52.172;10.548;2023-05-02T00:09:25;11.02;;;6.85;;
53062;SDS011;40529;52.172;10.548;2023-05-02T00:11:52;8.88;;;6.32;;
53062;SDS011;40529;52.172;10.548;2023-05-02T00:14:18;13.30;;;6.80;;
53062;SDS011;40529;52.172;10.548;2023-05-02T00:16:44;10.43;;;6.40;;
53062;SDS011;40529;52.172;10.548;2023-05-02T00:19:10;11.02;;;6.47;;
53062;SDS011;40529;52.172;10.548;2023-05-02T00:21:36;9.52;;;6.80;;
53062;SDS011;40529;52.172;10.548;2023-05-02T00:24:02;8.43;;;6.03;;
53062;SDS011;40529;52.172;10.548;2023-05-02T00:26:28;9.48;;;6.85;;
53062;SDS011;40529;52.172;10.548;2023-05-02T00:28:54;10.50;;;7.20;;
53062;SDS011;40529;52.172;10.548;2023-05-02T00:31:21;11.90;;;6.38;;
53062;SDS011;40529;52.172;10.548;2023-05-02T00:33:47;10.48;;;6.80;;
53062;SDS011;40529;52.172;10.548;2023-05-02T00:36:13;9.25;;;6.35;;
53062;SDS011;40529;52.172;10.548;2023-05-02T00:38:40;12.13;;;6.70;;
53062;SDS011;40529;52.172;10.548;2023-05-02T00:41:06;10.40;;;6.43;;
53062;SDS011;40529;52.172;10.548;2023-05-02T00:43:32;10.43;;;6.18;;
53062;SDS011;40529;52.172;10.548;2023-05-02T00:45:58;11.80;;;6.30;;
53062;SDS011;40529;52.172;10.548;2023-05-02T00:48:24;11.32;;;6.72;;
53062;SDS011;40529;52.172;10.548;2023-05-02T00:50:51;11.70;;;6.78;;
53062;SDS011;40529;52.172;10.548;2023-05-02T00:53:17;12.82;;;7.13;;
53062;SDS011;40529;52.172;10.548;2023-05-02T00:55:43;10.73;;;6.53;;
53062;SDS011;40529;52.172;10.548;2023-05-02T00:58:13;11.57;;;6.70;;
53062;SDS011;40529;52.172;10.548;2023-05-02T01:03:40;13.68;;;8.07;;
53062;SDS011;40529;52.172;10.548;2023-05-02T01:06:14;10.85;;;7.00;;
53062;SDS011;40529;52.172;10.548;2023-05-02T01:09:08;14.20;;;7.82;;
53062;SDS011;40529;52.172;10.548;2023-05-02T01:14:00;13.45;;;7.38;;
53062;SDS011;40529;52.172;10.548;2023-05-02T01:16:28;8.75;;;5.72;;
53062;SDS011;40529;52.172;10.548;2023-05-02T01:18:55;10.20;;;6.30;;
53062;SDS011;40529;52.172;10.548;2023-05-02T01:21:23;9.18;;;6.38;;
53062;SDS011;40529;52.172;10.548;2023-05-02T01:24:04;9.30;;;5.53;;
53062;SDS011;40529;52.172;10.548;2023-05-02T01:29:02;9.80;;;5.90;;
53062;SDS011;40529;52.172;10.548;2023-05-02T01:31:30;8.32;;;6.05;;
53062;SDS011;40529;52.172;10.548;2023-05-02T01:33:56;9.82;;;5.93;;
53062;SDS011;40529;52.172;10.548;2023-05-02T01:36:24;10.73;;;6.05;;
53062;SDS011;40529;52.172;10.548;2023-05-02T01:38:51;9.98;;;5.90;;
53062;SDS011;40529;52.172;10.548;2023-05-02T01:41:19;8.35;;;6.32;;
53062;SDS011;40529;52.172;10.548;2023-05-02T01:43:46;9.85;;;6.32;;
53062;SDS011;40529;52.172;10.548;2023-05-02T01:46:12;9.98;;;5.82;;
53062;SDS011;40529;52.172;10.548;2023-05-02T01:48:40;9.57;;;6.05;;
53062;SDS011;40529;52.172;10.548;2023-05-02T01:51:06;11.30;;;6.35;;
53062;SDS011;40529;52.172;10.548;2023-05-02T01:53:33;8.15;;;5.45;;
53062;SDS011;40529;52.172;10.548;2023-05-02T01:56:00;10.95;;;6.10;;
53062;SDS011;40529;52.172;10.548;2023-05-02T01:58:28;9.35;;;6.13;;
53062;SDS011;40529;52.172;10.548;2023-05-02T02:00:55;8.10;;;5.50;;
53062;SDS011;40529;52.172;10.548;2023-05-02T02:03:24;11.98;;;6.18;;
53062;SDS011;40529;52.172;10.548;2023-05-02T02:05:51;12.85;;;6.97;;
53062;SDS011;40529;52.172;10.548;2023-05-02T02:08:17;13.00;;;7.03;;
53062;SDS011;40529;52.172;10.548;2023-05-02T02:10:44;10.98;;;6.38;;
53062;SDS011;40529;52.172;10.548;2023-05-02T02:13:17;10.70;;;6.07;;
53062;SDS011;40529;52.172;10.548;2023-05-02T02:15:47;10.18;;;6.03;;
53062;SDS011;40529;52.172;10.548;2023-05-02T02:18:18;10.27;;;5.72;;
53062;SDS011;40529;52.172;10.548;2023-05-02T02:20:46;9.02;;;5.63;;
53062;SDS011;40529;52.172;10.548;2023-05-02T02:23:13;10.30;;;5.60;;
53062;SDS011;40529;52.172;10.548;2023-05-02T02:25:39;11.00;;;6.22;;
53062;SDS011;40529;52.172;10.548;2023-05-02T02:28:06;8.88;;;5.55;;
53062;SDS011;40529;52.172;10.548;2023-05-02T02:30:32;10.65;;;5.95;;
53062;SDS011;40529;52.172;10.548;2023-05-02T02:32:58;10.13;;;6.30;;
53062;SDS011;40529;52.172;10.548;2023-05-02T02:35:30;14.20;;;7.25;;
53062;SDS011;40529;52.172;10.548;2023-05-02T02:38:05;13.65;;;7.05;;
53062;SDS011;40529;52.172;10.548;2023-05-02T02:40:37;10.82;;;6.15;;
53062;SDS011;40529;52.172;10.548;2023-05-02T02:43:19;9.70;;;5.97;;
53062;SDS011;40529;52.172;10.548;2023-05-02T02:46:11;10.38;;;6.97;;
53062;SDS011;40529;52.172;10.548;2023-05-02T02:48:42;8.60;;;6.05;;
53062;SDS011;40529;52.172;10.548;2023-05-02T02:56:41;9.25;;;6.07;;
53062;SDS011;40529;52.172;10.548;2023-05-02T02:59:25;9.90;;;6.68;;
53062;SDS011;40529;52.172;10.548;2023-05-02T03:02:01;14.05;;;6.75;;
53062;SDS011;40529;52.172;10.548;2023-05-02T03:04:29;11.60;;;6.47;;
53062;SDS011;40529;52.172;10.548;2023-05-02T03:06:56;9.32;;;6.38;;
53062;SDS011;40529;52.172;10.548;2023-05-02T03:09:22;11.85;;;7.20;;
53062;SDS011;40529;52.172;10.548;2023-05-02T03:11:49;12.05;;;6.95;;
53062;SDS011;40529;52.172;10.548;2023-05-02T03:14:15;13.00;;;6.47;;
53062;SDS011;40529;52.172;10.548;2023-05-02T03:16:41;10.60;;;7.30;;
53062;SDS011;40529;52.172;10.548;2023-05-02T03:19:07;9.10;;;6.70;;
53062;SDS011;40529;52.172;10.548;2023-05-02T03:21:34;11.75;;;7.07;;
53062;SDS011;40529;52.172;10.548;2023-05-02T03:24:00;14.32;;;7.38;;
53062;SDS011;40529;52.172;10.548;2023-05-02T03:26:27;13.98;;;7.03;;
53062;SDS011;40529;52.172;10.548;2023-05-02T03:28:53;12.25;;;7.28;;
53062;SDS011;40529;52.172;10.548;2023-05-02T03:31:19;15.88;;;8.80;;
53062;SDS011;40529;52.172;10.548;2023-05-02T03:33:46;17.60;;;9.73;;
53062;SDS011;40529;52.172;10.548;2023-05-02T03:36:12;16.42;;;8.90;;
53062;SDS011;40529;52.172;10.548;2023-05-02T03:38:38;14.20;;;8.95;;
53062;SDS011;40529;52.172;10.548;2023-05-02T03:41:04;14.25;;;9.68;;
53062;SDS011;40529;52.172;10.548;2023-05-02T03:43:30;18.23;;;10.45;;
53062;SDS011;40529;52.172;10.548;2023-05-02T03:45:56;17.92;;;10.05;;
53062;SDS011;40529;52.172;10.548;2023-05-02T03:48:23;17.80;;;9.98;;
53062;SDS011;40529;52.172;10.548;2023-05-02T03:50:49;17.33;;;10.95;;
53062;SDS011;40529;52.172;10.548;2023-05-02T03:53:15;16.98;;;10.68;;
53062;SDS011;40529;52.172;10.548;2023-05-02T03:55:41;16.55;;;10.65;;
53062;SDS011;40529;52.172;10.548;2023-05-02T03:58:09;18.40;;;11.20;;
53062;SDS011;40529;52.172;10.548;2023-05-02T04:00:35;18.80;;;12.15;;
53062;SDS011;40529;52.172;10.548;2023-05-02T04:03:02;20.02;;;11.85;;
53062;SDS011;40529;52.172;10.548;2023-05-02T04:05:28;21.38;;;12.80;;
53062;SDS011;40529;52.172;10.548;2023-05-02T04:07:55;22.80;;;13.45;;
53062;SDS011;40529;52.172;10.548;2023-05-02T04:10:21;23.60;;;14.38;;
53062;SDS011;40529;52.172;10.548;2023-05-02T04:12:47;22.35;;;14.50;;
53062;SDS011;40529;52.172;10.548;2023-05-02T04:15:14;24.35;;;14.63;;
53062;SDS011;40529;52.172;10.548;2023-05-02T04:17:40;21.63;;;14.18;;
53062;SDS011;40529;52.172;10.548;2023-05-02T04:20:06;23.48;;;15.25;;
53062;SDS011;40529;52.172;10.548;2023-05-02T04:22:32;25.52;;;16.40;;
53062;SDS011;40529;52.172;10.548;2023-05-02T04:24:58;26.70;;;16.35;;
53062;SDS011;40529;52.172;10.548;2023-05-02T04:27:28;26.52;;;16.00;;
53062;SDS011;40529;52.172;10.548;2023-05-02T04:29:54;31.97;;;17.30;;
53062;SDS011;40529;52.172;10.548;2023-05-02T04:32:20;28.40;;;17.73;;
53062;SDS011;40529;52.172;10.548;2023-05-02T04:34:46;32.10;;;18.30;;
53062;SDS011;40529;52.172;10.548;2023-05-02T04:37:12;31.00;;;19.05;;
53062;SDS011;40529;52.172;10.548;2023-05-02T04:39:38;33.17;;;20.85;;
53062;SDS011;40529;52.172;10.548;2023-05-02T04:42:04;38.00;;;21.30;;
53062;SDS011;40529;52.172;10.548;2023-05-02T04:44:30;42.30;;;23.40;;
53062;SDS011;40529;52.172;10.548;2023-05-02T04:46:57;39.15;;;23.05;;
53062;SDS011;40529;52.172;10.548;2023-05-02T04:49:23;35.97;;;21.20;;
53062;SDS011;40529;52.172;10.548;2023-05-02T04:51:49;35.70;;;22.08;;
53062;SDS011;40529;52.172;10.548;2023-05-02T04:54:16;39.33;;;23.20;;
53062;SDS011;40529;52.172;10.548;2023-05-02T04:56:42;38.97;;;21.60;;
53062;SDS011;40529;52.172;10.548;2023-05-02T04:59:08;38.53;;;21.95;;
53062;SDS011;40529;52.172;10.548;2023-05-02T05:01:34;36.80;;;21.73;;
53062;SDS011;40529;52.172;10.548;2023-05-02T05:04:00;39.00;;;21.25;;
53062;SDS011;40529;52.172;10.548;2023-05-02T05:06:27;37.70;;;21.83;;
53062;SDS011;40529;52.172;10.548;2023-05-02T05:08:53;38.78;;;22.85;;
53062;SDS011;40529;52.172;10.548;2023-05-02T05:11:19;38.53;;;22.55;;
53062;SDS011;40529;52.172;10.548;2023-05-02T05:13:46;41.72;;;22.10;;
53062;SDS011;40529;52.172;10.548;2023-05-02T05:16:12;40.15;;;22.77;;
53062;SDS011;40529;52.172;10.548;2023-05-02T05:18:43;41.38;;;22.83;;
53062;SDS011;40529;52.172;10.548;2023-05-02T05:21:09;40.33;;;23.95;;
53062;SDS011;40529;52.172;10.548;2023-05-02T05:23:36;38.42;;;22.38;;
53062;SDS011;40529;52.172;10.548;2023-05-02T05:26:09;40.33;;;23.52;;
53062;SDS011;40529;52.172;10.548;2023-05-02T05:28:35;42.22;;;25.08;;
53062;SDS011;40529;52.172;10.548;2023-05-02T05:31:05;46.53;;;25.52;;
53062;SDS011;40529;52.172;10.548;2023-05-02T05:33:31;46.50;;;25.40;;
53062;SDS011;40529;52.172;10.548;2023-05-02T05:36:02;45.67;;;25.50;;
53062;SDS011;40529;52.172;10.548;2023-05-02T05:38:28;43.15;;;25.60;;
53062;SDS011;40529;52.172;10.548;2023-05-02T05:40:55;44.38;;;25.45;;
53062;SDS011;40529;52.172;10.548;2023-05-02T05:43:21;43.33;;;25.17;;
53062;SDS011;40529;52.172;10.548;2023-05-02T05:45:47;46.15;;;24.05;;
53062;SDS011;40529;52.172;10.548;2023-05-02T05:48:13;45.13;;;24.48;;
53062;SDS011;40529;52.172;10.548;2023-05-02T05:50:39;43.95;;;24.30;;
53062;SDS011;40529;52.172;10.548;2023-05-02T05:53:05;47.83;;;25.58;;
53062;SDS011;40529;52.172;10.548;2023-05-02T05:55:31;42.83;;;24.88;;
53062;SDS011;40529;52.172;10.548;2023-05-02T05:57:57;44.88;;;23.95;;
53062;SDS011;40529;52.172;10.548;2023-05-02T06:00:26;45.47;;;24.65;;
53062;SDS011;40529;52.172;10.548;2023-05-02T06:05:24;51.63;;;26.23;;
53062;SDS011;40529;52.172;10.548;2023-05-02T06:07:50;51.00;;;26.42;;
53062;SDS011;40529;52.172;10.548;2023-05-02T06:10:16;49.67;;;26.48;;
53062;SDS011;40529;52.172;10.548;2023-05-02T06:12:42;51.67;;;25.98;;
53062;SDS011;40529;52.172;10.548;2023-05-02T06:15:08;56.78;;;26.70;;
53062;SDS011;40529;52.172;10.548;2023-05-02T06:17:34;48.67;;;26.25;;
53062;SDS011;40529;52.172;10.548;2023-05-02T06:20:00;42.47;;;22.05;;
53062;SDS011;40529;52.172;10.548;2023-05-02T06:22:26;37.53;;;19.67;;
53062;SDS011;40529;52.172;10.548;2023-05-02T06:24:53;38.97;;;19.77;;
53062;SDS011;40529;52.172;10.548;2023-05-02T06:27:32;35.60;;;18.65;;
53062;SDS011;40529;52.172;10.548;2023-05-02T06:29:58;33.88;;;16.55;;
53062;SDS011;40529;52.172;10.548;2023-05-02T06:32:24;32.05;;;16.40;;
53062;SDS011;40529;52.172;10.548;2023-05-02T06:34:50;29.95;;;16.15;;
53062;SDS011;40529;52.172;10.548;2023-05-02T06:37:16;29.10;;;15.80;;
53062;SDS011;40529;52.172;10.548;2023-05-02T06:39:42;26.85;;;13.68;;
53062;SDS011;40529;52.172;10.548;2023-05-02T06:42:08;29.35;;;15.25;;
53062;SDS011;40529;52.172;10.548;2023-05-02T06:44:34;25.83;;;14.32;;
53062;SDS011;40529;52.172;10.548;2023-05-02T06:47:00;24.77;;;12.35;;
53062;SDS011;40529;52.172;10.548;2023-05-02T06:49:29;16.02;;;8.98;;
53062;SDS011;40529;52.172;10.548;2023-05-02T06:51:55;14.32;;;8.63;;
53062;SDS011;40529;52.172;10.548;2023-05-02T06:54:21;15.43;;;7.72;;
53062;SDS011;40529;52.172;10.548;2023-05-02T06:56:47;16.48;;;7.90;;
53062;SDS011;40529;52.172;10.548;2023-05-02T06:59:14;11.88;;;6.30;;
53062;SDS011;40529;52.172;10.548;2023-05-02T07:01:43;7.75;;;4.45;;
53062;SDS011;40529;52.172;10.548;2023-05-02T07:04:09;10.25;;;5.35;;
53062;SDS011;40529;52.172;10.548;2023-05-02T07:06:35;8.18;;;4.40;;
53062;SDS011;40529;52.172;10.548;2023-05-02T07:09:01;9.45;;;4.85;;
53062;SDS011;40529;52.172;10.548;2023-05-02T07:11:27;9.50;;;5.07;;
53062;SDS011;40529;52.172;10.548;2023-05-02T07:13:53;6.15;;;3.85;;
53062;SDS011;40529;52.172;10.548;2023-05-02T07:16:19;7.15;;;4.03;;
53062;SDS011;40529;52.172;10.548;2023-05-02T07:18:45;7.68;;;4.13;;
53062;SDS011;40529;52.172;10.548;2023-05-02T07:21:11;9.60;;;4.80;;
53062;SDS011;40529;52.172;10.548;2023-05-02T07:23:38;7.35;;;3.67;;
53062;SDS011;40529;52.172;10.548;2023-05-02T07:26:04;6.00;;;3.70;;
53062;SDS011;40529;52.172;10.548;2023-05-02T07:28:30;8.48;;;4.13;;
53062;SDS011;40529;52.172;10.548;2023-05-02T07:30:57;7.28;;;3.72;;
53062;SDS011;40529;52.172;10.548;2023-05-02T07:33:23;7.70;;;3.70;;
53062;SDS011;40529;52.172;10.548;2023-05-02T07:35:50;8.32;;;4.20;;
53062;SDS011;40529;52.172;10.548;2023-05-02T07:38:16;9.63;;;4.15;;
53062;SDS011;40529;52.172;10.548;2023-05-02T07:40:43;8.60;;;3.75;;
53062;SDS011;40529;52.172;10.548;2023-05-02T07:43:10;6.68;;;3.50;;
53062;SDS011;40529;52.172;10.548;2023-05-02T07:45:37;9.02;;;4.03;;
53062;SDS011;40529;52.172;10.548;2023-05-02T07:48:03;9.18;;;4.07;;
53062;SDS011;40529;52.172;10.548;2023-05-02T07:50:29;8.05;;;4.00;;
53062;SDS011;40529;52.172;10.548;2023-05-02T07:52:58;8.93;;;4.10;;
53062;SDS011;40529;52.172;10.548;2023-05-02T07:55:24;6.83;;;3.07;;
53062;SDS011;40529;52.172;10.548;2023-05-02T07:57:51;10.10;;;3.90;;
53062;SDS011;40529;52.172;10.548;2023-05-02T08:00:17;7.10;;;4.18;;
53062;SDS011;40529;52.172;10.548;2023-05-02T08:02:43;11.30;;;4.45;;
53062;SDS011;40529;52.172;10.548;2023-05-02T08:05:10;11.45;;;4.50;;
53062;SDS011;40529;52.172;10.548;2023-05-02T08:07:36;11.35;;;5.53;;
53062;SDS011;40529;52.172;10.548;2023-05-02T08:10:02;11.43;;;4.47;;
53062;SDS011;40529;52.172;10.548;2023-05-02T08:12:29;12.27;;;4.57;;
53062;SDS011;40529;52.172;10.548;2023-05-02T08:14:55;12.90;;;5.40;;
53062;SDS011;40529;52.172;10.548;2023-05-02T08:17:21;14.18;;;4.57;;
53062;SDS011;40529;52.172;10.548;2023-05-02T08:19:47;15.13;;;4.80;;
53062;SDS011;40529;52.172;10.548;2023-05-02T08:22:13;14.07;;;5.55;;
53062;SDS011;40529;52.172;10.548;2023-05-02T08:24:39;10.95;;;4.35;;
53062;SDS011;40529;52.172;10.548;2023-05-02T08:27:05;14.55;;;4.55;;
53062;SDS011;40529;52.172;10.548;2023-05-02T08:29:31;9.98;;;4.35;;
53062;SDS011;40529;52.172;10.548;2023-05-02T08:31:57;14.48;;;4.55;;
53062;SDS011;40529;52.172;10.548;2023-05-02T08:34:24;14.48;;;3.88;;
53062;SDS011;40529;52.172;10.548;2023-05-02T08:36:50;12.25;;;4.50;;
53062;SDS011;40529;52.172;10.548;2023-05-02T08:39:16;12.20;;;4.15;;
53062;SDS011;40529;52.172;10.548;2023-05-02T08:41:42;14.85;;;4.70;;
53062;SDS011;40529;52.172;10.548;2023-05-02T08:44:08;12.23;;;3.97;;
53062;SDS011;40529;52.172;10.548;2023-05-02T08:46:36;13.77;;;4.25;;
53062;SDS011;40529;52.172;10.548;2023-05-02T08:49:05;10.82;;;3.63;;
53062;SDS011;40529;52.172;10.548;2023-05-02T08:51:32;13.52;;;4.10;;
53062;SDS011;40529;52.172;10.548;2023-05-02T08:53:59;15.93;;;5.82;;
53062;SDS011;40529;52.172;10.548;2023-05-02T08:56:27;12.90;;;4.32;;
53062;SDS011;40529;52.172;10.548;2023-05-02T08:58:53;14.10;;;4.68;;
53062;SDS011;40529;52.172;10.548;2023-05-02T09:01:21;14.15;;;4.20;;
53062;SDS011;40529;52.172;10.548;2023-05-02T09:03:48;15.73;;;4.07;;
53062;SDS011;40529;52.172;10.548;2023-05-02T09:06:15;15.02;;;4.47;;
53062;SDS011;40529;52.172;10.548;2023-05-02T09:08:42;14.88;;;4.18;;
53062;SDS011;40529;52.172;10.548;2023-05-02T09:11:09;15.40;;;4.35;;
53062;SDS011;40529;52.172;10.548;2023-05-02T09:16:11;17.13;;;4.13;;
53062;SDS011;40529;52.172;10.548;2023-05-02T09:18:44;13.00;;;4.38;;
53062;SDS011;40529;52.172;10.548;2023-05-02T09:21:11;15.73;;;5.15;;
53062;SDS011;40529;52.172;10.548;2023-05-02T09:23:42;13.45;;;4.35;;
53062;SDS011;40529;52.172;10.548;2023-05-02T09:28:44;27.42;;;5.93;;
53062;SDS011;40529;52.172;10.548;2023-05-02T09:31:12;12.25;;;4.72;;
53062;SDS011;40529;52.172;10.548;2023-05-02T09:33:38;16.45;;;4.25;;
53062;SDS011;40529;52.172;10.548;2023-05-02T09:36:05;15.68;;;5.07;;
53062;SDS011;40529;52.172;10.548;2023-05-02T09:38:31;15.35;;;4.00;;
53062;SDS011;40529;52.172;10.548;2023-05-02T09:40:58;12.15;;;4.10;;
53062;SDS011;40529;52.172;10.548;2023-05-02T09:43:28;13.98;;;3.65;;
53062;SDS011;40529;52.172;10.548;2023-05-02T09:45:58;16.50;;;4.47;;
53062;SDS011;40529;52.172;10.548;2023-05-02T09:48:28;13.52;;;4.03;;
53062;SDS011;40529;52.172;10.548;2023-05-02T09:50:54;11.25;;;3.92;;
53062;SDS011;40529;52.172;10.548;2023-05-02T09:53:20;11.00;;;3.30;;
53062;SDS011;40529;52.172;10.548;2023-05-02T09:55:47;10.27;;;3.05;;
53062;SDS011;40529;52.172;10.548;2023-05-02T09:58:20;12.50;;;3.20;;
53062;SDS011;40529;52.172;10.548;2023-05-02T10:00:49;9.82;;;3.05;;
53062;SDS011;40529;52.172;10.548;2023-05-02T10:03:16;16.63;;;3.90;;
53062;SDS011;40529;52.172;10.548;2023-05-02T10:05:43;9.63;;;2.90;;
53062;SDS011;40529;52.172;10.548;2023-05-02T10:08:09;8.73;;;2.97;;
53062;SDS011;40529;52.172;10.548;2023-05-02T10:10:38;11.75;;;3.00;;
53062;SDS011;40529;52.172;10.548;2023-05-02T10:13:04;9.70;;;3.20;;
53062;SDS011;40529;52.172;10.548;2023-05-02T10:15:31;8.13;;;2.60;;
53062;SDS011;40529;52.172;10.548;2023-05-02T10:17:58;10.35;;;3.30;;
53062;SDS011;40529;52.172;10.548;2023-05-02T10:20:31;13.73;;;2.85;;
53062;SDS011;40529;52.172;10.548;2023-05-02T10:22:59;6.97;;;2.17;;
53062;SDS011;40529;52.172;10.548;2023-05-02T10:25:26;7.55;;;2.00;;
53062;SDS011;40529;52.172;10.548;2023-05-02T10:27:54;5.43;;;2.10;;
53062;SDS011;40529;52.172;10.548;2023-05-02T10:30:25;7.25;;;2.28;;
53062;SDS011;40529;52.172;10.548;2023-05-02T10:32:51;5.75;;;1.98;;
53062;SDS011;40529;52.172;10.548;2023-05-02T10:35:18;7.18;;;2.53;;
53062;SDS011;40529;52.172;10.548;2023-05-02T10:37:44;6.65;;;1.95;;
53062;SDS011;40529;52.172;10.548;2023-05-02T10:40:12;5.78;;;2.08;;
53062;SDS011;40529;52.172;10.548;2023-05-02T10:42:41;5.65;;;2.50;;
53062;SDS011;40529;52.172;10.548;2023-05-02T10:45:11;8.52;;;2.88;;
53062;SDS011;40529;52.172;10.548;2023-05-02T10:47:38;7.25;;;3.00;;
53062;SDS011;40529;52.172;10.548;2023-05-02T10:50:05;7.00;;;2.92;;
53062;SDS011;40529;52.172;10.548;2023-05-02T10:52:36;6.68;;;2.70;;
53062;SDS011;40529;52.172;10.548;2023-05-02T11:00:31;4.82;;;2.25;;
53062;SDS011;40529;52.172;10.548;2023-05-02T11:02:57;5.80;;;2.40;;
53062;SDS011;40529;52.172;10.548;2023-05-02T11:05:25;5.63;;;2.30;;
53062;SDS011;40529;52.172;10.548;2023-05-02T11:10:56;6.15;;;2.67;;
53062;SDS011;40529;52.172;10.548;2023-05-02T11:16:06;5.45;;;2.22;;
53062;SDS011;40529;52.172;10.548;2023-05-02T11:19:18;6.90;;;2.20;;
53062;SDS011;40529;52.172;10.548;2023-05-02T11:21:26;4.70;;;2.38;;
53062;SDS011;40529;52.172;10.548;2023-05-02T11:26:41;5.00;;;2.60;;
53062;SDS011;40529;52.172;10.548;2023-05-02T11:29:07;7.05;;;2.55;;
53062;SDS011;40529;52.172;10.548;2023-05-02T11:34:00;5.22;;;1.98;;
53062;SDS011;40529;52.172;10.548;2023-05-02T11:36:33;10.60;;;2.85;;
53062;SDS011;40529;52.172;10.548;2023-05-02T11:39:03;5.88;;;2.35;;
53062;SDS011;40529;52.172;10.548;2023-05-02T11:41:39;11.45;;;2.58;;
53062;SDS011;40529;52.172;10.548;2023-05-02T11:44:05;10.40;;;2.60;;
53062;SDS011;40529;52.172;10.548;2023-05-02T11:46:32;6.97;;;2.65;;
53062;SDS011;40529;52.172;10.548;2023-05-02T11:48:58;5.18;;;2.28;;
53062;SDS011;40529;52.172;10.548;2023-05-02T11:51:25;5.65;;;2.03;;
53062;SDS011;40529;52.172;10.548;2023-05-02T11:53:51;5.75;;;2.40;;
53062;SDS011;40529;52.172;10.548;2023-05-02T11:56:22;8.95;;;2.53;;
53062;SDS011;40529;52.172;10.548;2023-05-02T11:58:56;7.70;;;2.80;;
53062;SDS011;40529;52.172;10.548;2023-05-02T12:01:22;6.65;;;2.40;;
53062;SDS011;40529;52.172;10.548;2023-05-02T12:03:48;6.47;;;2.78;;
53062;SDS011;40529;52.172;10.548;2023-05-02T12:06:16;5.60;;;2.70;;
53062;SDS011;40529;52.172;10.548;2023-05-02T12:08:43;8.73;;;3.03;;
53062;SDS011;40529;52.172;10.548;2023-05-02T12:11:13;8.15;;;2.80;;
53062;SDS011;40529;52.172;10.548;2023-05-02T12:16:06;6.82;;;2.50;;
53062;SDS011;40529;52.172;10.548;2023-05-02T12:18:32;4.82;;;2.80;;
53062;SDS011;40529;52.172;10.548;2023-05-02T12:20:58;7.60;;;3.22;;
53062;SDS011;40529;52.172;10.548;2023-05-02T12:23:24;6.43;;;2.80;;
53062;SDS011;40529;52.172;10.548;2023-05-02T12:25:50;6.00;;;2.83;;
53062;SDS011;40529;52.172;10.548;2023-05-02T12:28:17;9.13;;;2.65;;
53062;SDS011;40529;52.172;10.548;2023-05-02T12:30:45;9.60;;;2.90;;
53062;SDS011;40529;52.172;10.548;2023-05-02T12:33:12;8.60;;;3.15;;
53062;SDS011;40529;52.172;10.548;2023-05-02T12:35:38;9.73;;;3.70;;
53062;SDS011;40529;52.172;10.548;2023-05-02T12:38:07;10.43;;;3.38;;
53062;SDS011;40529;52.172;10.548;2023-05-02T12:40:34;11.20;;;3.33;;
53062;SDS011;40529;52.172;10.548;2023-05-02T12:43:01;7.25;;;3.08;;
53062;SDS011;40529;52.172;10.548;2023-05-02T12:45:31;11.32;;;3.42;;
53062;SDS011;40529;52.172;10.548;2023-05-02T12:48:19;10.75;;;3.88;;
53062;SDS011;40529;52.172;10.548;2023-05-02T12:50:45;9.85;;;3.95;;
53062;SDS011;40529;52.172;10.548;2023-05-02T12:53:11;10.20;;;3.90;;
53062;SDS011;40529;52.172;10.548;2023-05-02T12:55:38;6.78;;;4.57;;
53062;SDS011;40529;52.172;10.548;2023-05-02T12:58:05;9.88;;;4.25;;
53062;SDS011;40529;52.172;10.548;2023-05-02T13:00:33;9.27;;;3.90;;
53062;SDS011;40529;52.172;10.548;2023-05-02T13:03:02;12.15;;;4.88;;
53062;SDS011;40529;52.172;10.548;2023-05-02T13:05:29;10.20;;;4.07;;
53062;SDS011;40529;52.172;10.548;2023-05-02T13:07:55;9.80;;;4.30;;
53062;SDS011;40529;52.172;10.548;2023-05-02T13:10:22;9.38;;;4.80;;
53062;SDS011;40529;52.172;10.548;2023-05-02T13:12:50;9.63;;;3.97;;
53062;SDS011;40529;52.172;10.548;2023-05-02T13:15:16;8.77;;;3.95;;
53062;SDS011;40529;52.172;10.548;2023-05-02T13:17:43;8.88;;;4.25;;
53062;SDS011;40529;52.172;10.548;2023-05-02T13:20:09;12.00;;;3.90;;
53062;SDS011;40529;52.172;10.548;2023-05-02T13:22:35;9.95;;;4.00;;
53062;SDS011;40529;52.172;10.548;2023-05-02T13:25:02;12.38;;;3.83;;
53062;SDS011;40529;52.172;10.548;2023-05-02T13:27:28;10.00;;;4.15;;
53062;SDS011;40529;52.172;10.548;2023-05-02T13:29:54;10.85;;;4.68;;
53062;SDS011;40529;52.172;10.548;2023-05-02T13:32:21;11.60;;;4.20;;
53062;SDS011;40529;52.172;10.548;2023-05-02T13:34:47;8.07;;;3.78;;
53062;SDS011;40529;52.172;10.548;2023-05-02T13:37:13;7.90;;;3.70;;
53062;SDS011;40529;52.172;10.548;2023-05-02T13:39:39;9.27;;;3.40;;
53062;SDS011;40529;52.172;10.548;2023-05-02T13:42:05;11.93;;;4.28;;
53062;SDS011;40529;52.172;10.548;2023-05-02T13:44:32;7.85;;;3.25;;
53062;SDS011;40529;52.172;10.548;2023-05-02T13:46:58;7.07;;;3.72;;
53062;SDS011;40529;52.172;10.548;2023-05-02T13:49:24;6.43;;;3.45;;
53062;SDS011;40529;52.172;10.548;2023-05-02T13:51:50;7.75;;;3.78;;
53062;SDS011;40529;52.172;10.548;2023-05-02T13:54:16;7.60;;;3.92;;
53062;SDS011;40529;52.172;10.548;2023-05-02T13:56:42;10.93;;;4.30;;
53062;SDS011;40529;52.172;10.548;2023-05-02T13:59:08;10.40;;;4.50;;
53062;SDS011;40529;52.172;10.548;2023-05-02T14:01:35;6.60;;;4.35;;
53062;SDS011;40529;52.172;10.548;2023-05-02T14:04:04;12.30;;;4.60;;
53062;SDS011;40529;52.172;10.548;2023-05-02T14:06:32;11.50;;;4.20;;
53062;SDS011;40529;52.172;10.548;2023-05-02T14:08:58;9.75;;;4.13;;
53062;SDS011;40529;52.172;10.548;2023-05-02T14:11:25;10.45;;;3.80;;
53062;SDS011;40529;52.172;10.548;2023-05-02T14:13:51;10.18;;;4.10;;
53062;SDS011;40529;52.172;10.548;2023-05-02T14:16:17;11.90;;;3.75;;
53062;SDS011;40529;52.172;10.548;2023-05-02T14:18:44;9.70;;;3.75;;
53062;SDS011;40529;52.172;10.548;2023-05-02T14:21:10;11.05;;;3.95;;
53062;SDS011;40529;52.172;10.548;2023-05-02T14:23:36;8.80;;;4.07;;
53062;SDS011;40529;52.172;10.548;2023-05-02T14:26:02;8.50;;;3.30;;
53062;SDS011;40529;52.172;10.548;2023-05-02T14:28:28;7.03;;;3.35;;
53062;SDS011;40529;52.172;10.548;2023-05-02T14:30:55;8.23;;;3.60;;
53062;SDS011;40529;52.172;10.548;2023-05-02T14:33:21;10.52;;;4.30;;
53062;SDS011;40529;52.172;10.548;2023-05-02T14:35:47;13.45;;;4.85;;
53062;SDS011;40529;52.172;10.548;2023-05-02T14:38:14;9.52;;;4.45;;
53062;SDS011;40529;52.172;10.548;2023-05-02T14:40:40;9.55;;;4.05;;
53062;SDS011;40529;52.172;10.548;2023-05-02T14:43:06;8.85;;;3.90;;
53062;SDS011;40529;52.172;10.548;2023-05-02T14:45:32;10.27;;;4.20;;
53062;SDS011;40529;52.172;10.548;2023-05-02T14:47:58;6.32;;;3.45;;
53062;SDS011;40529;52.172;10.548;2023-05-02T14:50:24;8.80;;;3.45;;
53062;SDS011;40529;52.172;10.548;2023-05-02T14:52:50;6.63;;;3.58;;
53062;SDS011;40529;52.172;10.548;2023-05-02T14:55:16;7.22;;;3.70;;
53062;SDS011;40529;52.172;10.548;2023-05-02T14:57:42;6.25;;;3.50;;
53062;SDS011;40529;52.172;10.548;2023-05-02T15:00:08;6.57;;;3.35;;
53062;SDS011;40529;52.172;10.548;2023-05-02T15:02:35;7.82;;;3.00;;
53062;SDS011;40529;52.172;10.548;2023-05-02T15:05:01;8.63;;;4.45;;